Time;durP1;ratioP1;P1;durP2;ratioP2;P2;SDS_P1;SDS_P2;PMS_P1;PMS_P2;Temp;Humidity;BMP_temperature;BMP_pressure;BME280_temperature;BME280_humidity;BME280_pressure;Samples;Min_cycle;Max_cycle;Signal;HPM_P1;HPM_P2
2022/01/01 00:01:52;;;;;;;125.90;72.83;;;;;;;3.13;86.41;100312.84;125133;1102;103932;-79
2022/01/01 00:04:22;;;;;;;121.40;70.90;;;;;;;3.15;86.58;100310.34;125110;1101;103970;-80
2022/01/01 00:06:51;;;;;;;125.80;75.83;;;;;;;3.14;86.13;100319.80;125144;1102;104191;-78
2022/01/01 00:09:21;;;;;;;102.63;59.40;;;;;;;3.15;87.02;100307.75;125179;1102;104059;-79
2022/01/01 00:11:51;;;;;;;124.37;71.20;;;;;;;3.15;87.00;100311.23;125225;1102;104054;-79
2022/01/01 00:14:21;;;;;;;116.77;67.07;;;;;;;3.14;86.57;100296.47;125123;1102;104054;-78
2022/01/01 00:16:50;;;;;;;107.37;64.13;;;;;;;3.15;87.09;100308.64;125182;1102;103931;-79
2022/01/01 00:19:20;;;;;;;107.57;63.83;;;;;;;3.14;86.17;100313.73;125208;1102;104057;-79
2022/01/01 00:21:50;;;;;;;109.77;65.60;;;;;;;3.14;86.17;100314.61;125161;1102;104054;-79
2022/01/01 00:24:19;;;;;;;106.20;62.80;;;;;;;3.12;86.99;100303.27;125076;1102;104146;-78
2022/01/01 00:26:49;;;;;;;100.07;59.87;;;;;;;3.12;86.51;100307.56;125245;1102;103938;-79
2022/01/01 00:29:19;;;;;;;104.63;59.97;;;;;;;3.10;86.94;100302.28;125078;1102;104015;-79
2022/01/01 00:31:49;;;;;;;104.77;60.50;;;;;;;3.10;86.38;100304.87;125036;1102;104063;-78
2022/01/01 00:34:21;;;;;;;103.93;62.37;;;;;;;3.11;86.42;100309.23;124936;1102;103925;-78
2022/01/01 00:36:50;;;;;;;106.03;61.43;;;;;;;3.13;86.39;100307.66;125230;1102;103947;-79
2022/01/01 00:39:20;;;;;;;95.57;54.80;;;;;;;3.13;86.97;100301.55;125220;1102;104053;-79
2022/01/01 00:41:49;;;;;;;86.03;49.47;;;;;;;3.14;87.38;100296.47;125023;1102;104062;-80
2022/01/01 00:44:19;;;;;;;82.67;46.93;;;;;;;3.15;86.87;100293.08;125282;1102;103939;-79
2022/01/01 00:46:51;;;;;;;90.95;51.30;;;;;;;3.17;86.87;100304.44;125047;1102;104048;-80
2022/01/01 00:49:21;;;;;;;85.17;49.20;;;;;;;3.18;86.64;100307.91;125261;1102;104108;-79
2022/01/01 00:51:51;;;;;;;81.60;45.73;;;;;;;3.19;87.15;100301.94;125279;1102;104354;-79
2022/01/01 00:54:22;;;;;;;76.37;44.00;;;;;;;3.21;86.69;100301.24;125299;1102;103977;-80
2022/01/01 00:56:51;;;;;;;83.07;46.57;;;;;;;3.23;87.12;100299.62;125092;1102;104002;-79
2022/01/01 00:59:21;;;;;;;82.10;46.93;;;;;;;3.27;86.81;100292.03;125244;1102;104034;-78
2022/01/01 01:01:51;;;;;;;78.47;46.07;;;;;;;3.29;86.65;100291.34;125171;1102;104530;-78
2022/01/01 01:04:21;;;;;;;85.13;47.47;;;;;;;3.33;86.64;100295.01;125204;1102;103931;-80
2022/01/01 01:06:50;;;;;;;79.63;43.90;;;;;;;3.34;86.79;100294.22;125274;1102;104066;-79
2022/01/01 01:09:20;;;;;;;81.33;45.13;;;;;;;3.34;86.95;100283.84;125285;1102;103929;-80
2022/01/01 01:11:52;;;;;;;78.57;44.40;;;;;;;3.36;86.70;100279.63;125108;1102;104014;-80
2022/01/01 01:14:23;;;;;;;75.87;44.40;;;;;;;3.36;86.97;100270.14;125092;1102;104094;-79
2022/01/01 01:16:54;;;;;;;79.50;43.43;;;;;;;3.37;87.14;100269.35;125150;1102;105370;-79
2022/01/01 01:19:32;;;;;;;70.47;39.63;;;;;;;3.38;86.87;100265.97;125367;1102;103923;-78
2022/01/01 01:22:02;;;;;;;70.43;37.53;;;;;;;3.42;87.28;100267.03;125254;1102;104088;-79
2022/01/01 01:24:33;;;;;;;70.93;40.87;;;;;;;3.45;86.90;100267.22;125281;1102;103970;-80
2022/01/01 01:27:04;;;;;;;71.40;38.03;;;;;;;3.47;87.28;100263.02;125250;1102;102754;-79
2022/01/01 01:29:37;;;;;;;65.33;37.57;;;;;;;3.49;87.54;100257.91;125313;1102;103976;-79
2022/01/01 01:32:07;;;;;;;58.20;32.45;;;;;;;3.51;87.36;100252.03;125346;1102;103941;-79
2022/01/01 01:34:44;;;;;;;57.13;31.77;;;;;;;3.54;87.83;100246.14;125308;1102;103977;-80
2022/01/01 01:37:14;;;;;;;54.80;29.77;;;;;;;3.57;87.35;100252.39;125165;1102;104043;-79
2022/01/01 01:39:43;;;;;;;54.43;29.37;;;;;;;3.60;87.35;100257.77;125304;1102;103932;-79
2022/01/01 01:42:14;;;;;;;55.53;30.70;;;;;;;3.64;87.56;100252.77;125284;1102;103957;-79
2022/01/01 01:44:47;;;;;;;53.90;29.80;;;;;;;3.68;87.75;100260.82;125149;1102;104123;-79
2022/01/01 01:47:18;;;;;;;57.40;30.07;;;;;;;3.72;87.34;100262.77;125114;1102;105306;-80
2022/01/01 01:49:47;;;;;;;58.57;30.87;;;;;;;3.74;87.66;100263.78;125314;1102;104181;-79
2022/01/01 01:52:20;;;;;;;66.67;37.47;;;;;;;3.77;87.54;100256.17;125126;1102;104590;-79
2022/01/01 01:54:51;;;;;;;78.40;45.90;;;;;;;3.76;87.60;100253.48;125317;1102;103925;-79
2022/01/01 01:57:28;;;;;;;88.07;50.43;;;;;;;3.74;87.53;100248.20;125139;1102;103945;-80
2022/01/01 01:59:58;;;;;;;82.70;45.73;;;;;;;3.73;87.21;100245.52;125212;1102;104082;-79
2022/01/01 02:02:27;;;;;;;80.73;46.03;;;;;;;3.72;87.39;100249.80;125234;1102;104384;-79
2022/01/01 02:04:57;;;;;;;84.17;47.90;;;;;;;3.71;87.26;100254.89;125158;1102;103918;-79
2022/01/01 02:07:27;;;;;;;79.80;46.57;;;;;;;3.71;87.21;100258.41;125157;1102;103937;-78
2022/01/01 02:09:57;;;;;;;85.27;47.63;;;;;;;3.70;86.59;100253.13;125220;1102;103999;-78
2022/01/01 02:12:27;;;;;;;73.57;41.13;;;;;;;3.69;87.00;100251.32;125224;1102;104093;-79
2022/01/01 02:15:11;;;;;;;76.37;44.47;;;;;;;3.68;86.95;100245.25;125147;1102;103932;-79
2022/01/01 02:17:40;;;;;;;;;;;;;;;3.66;87.57;100240.77;125026;1102;105121;-78
2022/01/01 02:20:13;;;;;;;77.90;42.97;;;;;;;3.66;87.27;100238.17;125259;1102;103952;-78
2022/01/01 02:22:47;;;;;;;75.20;41.07;;;;;;;3.65;87.12;100226.91;124997;1102;104015;-78
2022/01/01 02:25:22;;;;;;;73.87;40.90;;;;;;;3.64;87.62;100230.29;125273;1102;104560;-78
2022/01/01 02:27:51;;;;;;;71.30;39.70;;;;;;;3.65;87.07;100224.30;125163;1102;103980;-79
2022/01/01 02:30:21;;;;;;;75.93;41.77;;;;;;;3.66;87.72;100230.38;125276;1102;103932;-78
2022/01/01 02:32:51;;;;;;;67.83;38.30;;;;;;;3.68;87.41;100228.80;125248;1102;103935;-79
2022/01/01 02:35:21;;;;;;;65.90;37.20;;;;;;;3.69;87.76;100220.19;125201;1102;103936;-79
2022/01/01 02:37:51;;;;;;;71.47;38.63;;;;;;;3.71;87.70;100216.88;125154;1102;104105;-78
2022/01/01 02:40:21;;;;;;;73.97;42.13;;;;;;;3.74;88.18;100216.15;125090;1102;103977;-79
2022/01/01 02:42:51;;;;;;;83.00;43.90;;;;;;;3.76;87.39;100214.56;124992;1101;103932;-80
2022/01/01 02:45:21;;;;;;;67.50;38.97;;;;;;;3.76;87.61;100212.84;125159;1102;102779;-79
2022/01/01 02:47:51;;;;;;;63.60;36.70;;;;;;;3.80;88.11;100215.62;125143;1102;103932;-79
2022/01/01 02:50:20;;;;;;;60.80;32.57;;;;;;;3.82;88.01;100209.72;125055;1102;101881;-80
2022/01/01 02:52:51;;;;;;;65.23;35.07;;;;;;;3.85;87.65;100207.30;124986;1102;104050;-80
2022/01/01 02:55:21;;;;;;;61.93;32.60;;;;;;;3.87;87.97;100202.20;125206;1102;104046;-81
2022/01/01 02:57:50;;;;;;;61.83;32.33;;;;;;;3.89;87.22;100203.17;125144;1102;104017;-79
2022/01/01 03:00:20;;;;;;;54.53;30.57;;;;;;;3.91;87.49;100205.06;125153;1102;103989;-80
2022/01/01 03:02:50;;;;;;;61.17;32.90;;;;;;;3.93;87.95;100195.66;125089;1102;104174;-79
2022/01/01 03:05:19;;;;;;;59.57;31.67;;;;;;;3.96;88.18;100202.73;125025;1102;103951;-79
2022/01/01 03:07:49;;;;;;;57.87;31.30;;;;;;;3.99;87.47;100204.59;125055;1102;103989;-79
2022/01/01 03:10:22;;;;;;;57.75;30.60;;;;;;;4.00;87.79;100198.60;125103;1102;104416;-79
2022/01/01 03:12:52;;;;;;;57.80;30.77;;;;;;;4.02;87.41;100200.48;124950;1102;104037;-79
2022/01/01 03:15:21;;;;;;;54.07;29.80;;;;;;;4.03;87.30;100207.45;125074;1102;104056;-79
2022/01/01 03:17:51;;;;;;;56.23;30.43;;;;;;;4.07;88.03;100205.95;125057;1102;104264;-79
2022/01/01 03:20:21;;;;;;;60.30;33.27;;;;;;;4.08;87.81;100207.71;125153;1102;103935;-78
2022/01/01 03:22:51;;;;;;;61.87;33.90;;;;;;;4.08;87.65;100199.92;125151;1102;103939;-79
2022/01/01 03:25:20;;;;;;;59.47;33.07;;;;;;;4.06;87.80;100198.95;125053;1102;104031;-79
2022/01/01 03:27:50;;;;;;;62.13;33.33;;;;;;;4.07;87.34;100200.75;125108;1102;103933;-81
2022/01/01 03:30:20;;;;;;;60.10;31.93;;;;;;;4.05;87.58;100205.86;125071;1102;104082;-79
2022/01/01 03:32:49;;;;;;;56.50;30.17;;;;;;;4.03;87.34;100198.77;125221;1102;104062;-80
2022/01/01 03:35:19;;;;;;;54.63;29.57;;;;;;;4.02;88.01;100205.68;125303;1102;104053;-80
2022/01/01 03:37:49;;;;;;;57.30;31.07;;;;;;;4.00;87.72;100194.30;125337;1102;103982;-80
2022/01/01 03:40:18;;;;;;;56.13;28.47;;;;;;;3.99;87.96;100191.61;125314;1102;118529;-80
2022/01/01 03:42:51;;;;;;;57.33;29.30;;;;;;;3.96;88.03;100188.04;125264;1102;104147;-80
2022/01/01 03:45:21;;;;;;;57.00;29.53;;;;;;;3.94;87.42;100181.88;125347;1102;103925;-80
2022/01/01 03:47:50;;;;;;;50.33;26.80;;;;;;;3.94;88.15;100184.48;125315;1102;103931;-79
2022/01/01 03:50:20;;;;;;;52.17;28.37;;;;;;;3.94;88.03;100178.36;125292;1102;104041;-79
2022/01/01 03:52:50;;;;;;;51.10;28.00;;;;;;;3.94;87.57;100168.90;125448;1102;101827;-80
2022/01/01 03:55:19;;;;;;;47.63;24.07;;;;;;;3.95;88.24;100162.87;125233;1102;103954;-79
2022/01/01 03:57:49;;;;;;;47.57;25.23;;;;;;;3.98;87.94;100161.28;125188;1102;103960;-79
2022/01/01 04:00:19;;;;;;;45.13;25.70;;;;;;;3.98;88.39;100156.97;125211;1102;104044;-79
2022/01/01 04:02:48;;;;;;;47.07;25.33;;;;;;;3.99;88.10;100157.86;125261;1102;103941;-79
2022/01/01 04:05:18;;;;;;;47.53;25.80;;;;;;;3.98;88.30;100151.78;125151;1102;103941;-80
2022/01/01 04:07:48;;;;;;;43.23;22.03;;;;;;;3.99;87.87;100156.17;125211;1102;104021;-79
2022/01/01 04:10:17;;;;;;;42.25;23.25;;;;;;;4.01;88.34;100148.47;125223;1102;103944;-79
2022/01/01 04:12:49;;;;;;;44.27;23.13;;;;;;;4.02;88.18;100147.64;125218;1102;104021;-79
2022/01/01 04:15:18;;;;;;;40.00;20.53;;;;;;;4.03;87.88;100145.14;125105;1102;103916;-79
2022/01/01 04:17:48;;;;;;;38.63;19.53;;;;;;;4.07;88.65;100138.44;125241;1101;104118;-79
2022/01/01 04:20:18;;;;;;;43.50;21.77;;;;;;;4.07;88.39;100134.12;125134;1101;104249;-79
2022/01/01 04:22:48;;;;;;;41.00;21.97;;;;;;;4.07;87.73;100138.44;125080;1102;104022;-79
2022/01/01 04:25:17;;;;;;;39.43;21.37;;;;;;;4.07;87.76;100141.03;125258;1102;103928;-79
2022/01/01 04:27:50;;;;;;;40.33;20.07;;;;;;;4.06;88.06;100137.52;125255;1102;103960;-79
2022/01/01 04:30:21;;;;;;;40.90;20.27;;;;;;;4.07;87.81;100133.24;125156;1102;103922;-79
2022/01/01 04:32:52;;;;;;;41.90;21.73;;;;;;;4.08;87.94;100135.01;125166;1102;103984;-79
2022/01/01 04:35:21;;;;;;;39.97;20.77;;;;;;;4.08;88.35;100130.73;125259;1102;104009;-80
2022/01/01 04:37:53;;;;;;;38.37;20.20;;;;;;;4.09;88.34;100131.61;125113;1102;104060;-79
2022/01/01 04:40:24;;;;;;;43.90;22.60;;;;;;;4.08;88.33;100138.52;125211;1102;103944;-80
2022/01/01 04:42:56;;;;;;;43.73;21.23;;;;;;;4.07;88.18;100134.12;125229;1102;104050;-79
2022/01/01 04:45:26;;;;;;;41.10;21.43;;;;;;;4.07;87.71;100138.44;125232;1102;103931;-79
2022/01/01 04:47:57;;;;;;;36.27;19.73;;;;;;;4.05;88.36;100135.75;125206;1102;103925;-79
2022/01/01 04:50:27;;;;;;;40.70;21.13;;;;;;;4.05;88.32;100140.95;125093;1102;103929;-80
2022/01/01 04:52:58;;;;;;;37.10;19.77;;;;;;;4.05;87.57;100140.95;125278;1102;104057;-79
2022/01/01 04:55:29;;;;;;;38.17;20.47;;;;;;;4.05;88.42;100140.95;125334;1102;103929;-79
2022/01/01 04:58:00;;;;;;;38.67;19.63;;;;;;;4.08;88.16;100153.19;125228;1102;103934;-79
2022/01/01 05:00:29;;;;;;;36.97;18.83;;;;;;;4.10;88.51;100151.59;125123;1102;103933;-79
2022/01/01 05:02:59;;;;;;;38.33;18.33;;;;;;;4.12;88.28;100156.03;125132;1102;103923;-80
2022/01/01 05:05:29;;;;;;;38.60;19.73;;;;;;;4.14;88.45;100148.33;125220;1102;103993;-79
2022/01/01 05:07:59;;;;;;;35.83;18.30;;;;;;;4.15;89.28;100152.73;125200;1102;104110;-79
2022/01/01 05:10:32;;;;;;;39.03;20.20;;;;;;;4.17;88.98;100156.30;125199;1102;104012;-80
2022/01/01 05:13:02;;;;;;;37.50;20.12;;;;;;;4.17;88.96;100156.30;125266;1102;103987;-79
2022/01/01 05:15:32;;;;;;;38.37;19.20;;;;;;;4.17;88.66;100160.61;125093;1101;103947;-79
2022/01/01 05:18:02;;;;;;;37.93;20.40;;;;;;;4.15;88.99;100157.92;125039;1102;104512;-81
2022/01/01 05:20:31;;;;;;;35.93;19.93;;;;;;;4.16;89.24;100151.02;125170;1102;104162;-81
2022/01/01 05:23:04;;;;;;;37.55;19.20;;;;;;;4.17;88.76;100153.70;125184;1102;104047;-78
2022/01/01 05:25:34;;;;;;;37.67;19.23;;;;;;;4.17;88.56;100156.30;125110;1102;104024;-78
2022/01/01 05:28:04;;;;;;;39.87;19.27;;;;;;;4.17;89.01;100152.81;125048;1101;103934;-78
2022/01/01 05:30:36;;;;;;;35.63;18.07;;;;;;;4.16;88.52;100151.94;124869;1103;105361;-78
2022/01/01 05:33:06;;;;;;;38.53;19.73;;;;;;;4.15;88.42;100155.33;125101;1102;104075;-78
2022/01/01 05:35:38;;;;;;;38.23;19.23;;;;;;;4.14;89.26;100154.45;125069;1102;104086;-78
2022/01/01 05:38:07;;;;;;;36.67;20.17;;;;;;;4.12;89.13;100155.16;125126;1102;104009;-78
2022/01/01 05:43:22;;;;;;;41.60;22.30;;;;;;;4.09;88.71;100161.06;125265;1102;103932;-79
2022/01/01 05:45:52;;;;;;;37.27;19.77;;;;;;;4.09;88.66;100166.25;125134;1102;104036;-79
2022/01/01 05:48:21;;;;;;;39.35;20.95;;;;;;;4.11;89.19;100174.12;125165;1102;103928;-79
2022/01/01 05:50:51;;;;;;;34.90;18.13;;;;;;;4.09;88.65;100174.05;125114;1102;104515;-78
2022/01/01 05:53:23;;;;;;;39.83;20.37;;;;;;;4.11;89.51;100180.23;125179;1101;103902;-79
2022/01/01 05:55:52;;;;;;;38.53;19.93;;;;;;;4.11;88.70;100181.92;125218;1102;104031;-80
2022/01/01 05:58:22;;;;;;;40.10;19.33;;;;;;;4.11;89.35;100185.44;125114;1102;104060;-80
2022/01/01 06:00:52;;;;;;;37.07;19.33;;;;;;;4.12;88.78;100191.52;125089;1102;103928;-79
2022/01/01 06:03:21;;;;;;;36.83;18.53;;;;;;;4.12;88.94;100191.52;125095;1102;103964;-79
2022/01/01 06:05:52;;;;;;;34.17;17.90;;;;;;;4.14;89.01;100189.88;125175;1101;103967;-80
2022/01/01 06:08:28;;;;;;;38.50;19.27;;;;;;;4.17;89.49;100196.97;125032;1102;104040;-79
2022/01/01 06:10:58;;;;;;;35.80;17.90;;;;;;;4.19;89.51;100200.53;125116;1102;104077;-79
2022/01/01 06:13:28;;;;;;;35.60;17.73;;;;;;;4.20;88.97;100202.33;125200;1102;103941;-79
2022/01/01 06:15:57;;;;;;;37.23;18.43;;;;;;;4.21;88.91;100206.73;125148;1102;104012;-79
2022/01/01 06:18:27;;;;;;;35.13;17.47;;;;;;;4.22;88.97;100205.90;125149;1102;103941;-79
2022/01/01 06:20:57;;;;;;;34.33;17.67;;;;;;;4.22;89.07;100200.70;125035;1102;103931;-79
2022/01/01 06:23:26;;;;;;;34.93;17.80;;;;;;;4.23;89.50;100203.39;125120;1102;103981;-79
2022/01/01 06:25:57;;;;;;;36.63;18.40;;;;;;;4.24;89.05;100202.59;125161;1102;103957;-78
2022/01/01 06:28:26;;;;;;;33.03;16.47;;;;;;;4.27;89.47;100212.23;125033;1102;103958;-78
2022/01/01 06:30:56;;;;;;;36.60;17.80;;;;;;;4.28;89.36;100204.53;125060;1101;104057;-78
2022/01/01 06:33:28;;;;;;;36.57;16.83;;;;;;;4.31;89.31;100202.11;125234;1102;103926;-78
2022/01/01 06:35:57;;;;;;;32.77;15.83;;;;;;;4.32;88.82;100206.50;125244;1102;104089;-78
2022/01/01 06:38:27;;;;;;;31.90;15.93;;;;;;;4.36;89.09;100211.88;125221;1102;104161;-79
2022/01/01 06:40:57;;;;;;;30.53;14.63;;;;;;;4.40;89.04;100219.04;125158;1102;103232;-79
2022/01/01 06:43:26;;;;;;;29.03;14.30;;;;;;;4.46;88.95;100229.77;125152;1102;104051;-79
2022/01/01 06:45:56;;;;;;;29.40;14.83;;;;;;;4.49;88.97;100227.34;125260;1102;105527;-79
2022/01/01 06:48:25;;;;;;;32.63;14.87;;;;;;;4.52;89.06;100234.39;125066;1102;105036;-79
2022/01/01 06:50:55;;;;;;;33.67;15.30;;;;;;;4.52;89.25;100224.00;125113;1102;104043;-80
2022/01/01 06:53:25;;;;;;;29.83;15.00;;;;;;;4.56;89.25;100233.77;125238;1102;103954;-79
2022/01/01 06:55:55;;;;;;;30.00;15.33;;;;;;;4.57;89.29;100235.56;125274;1102;103934;-79
2022/01/01 06:58:26;;;;;;;32.63;15.37;;;;;;;4.60;89.26;100231.42;125316;1102;104104;-80
2022/01/01 07:00:56;;;;;;;31.57;14.87;;;;;;;4.64;88.87;100228.20;125253;1102;102528;-79
2022/01/01 07:03:28;;;;;;;31.50;15.07;;;;;;;4.65;88.60;100236.87;125220;1102;103923;-79
2022/01/01 07:05:57;;;;;;;29.57;14.97;;;;;;;4.66;88.86;100236.96;125201;1102;103951;-79
2022/01/01 07:08:27;;;;;;;28.07;14.03;;;;;;;4.67;89.08;100241.36;125181;1102;104110;-79
2022/01/01 07:10:59;;;;;;;29.57;13.87;;;;;;;4.70;88.75;100245.81;125057;1103;101817;-79
2022/01/01 07:13:29;;;;;;;29.77;14.70;;;;;;;4.74;88.91;100244.30;125168;1102;103980;-79
2022/01/01 07:15:59;;;;;;;28.63;13.37;;;;;;;4.76;89.13;100248.75;125163;1102;104019;-79
2022/01/01 07:18:28;;;;;;;29.13;15.17;;;;;;;4.78;89.23;100248.84;125076;1102;103980;-80
2022/01/01 07:20:58;;;;;;;28.70;14.40;;;;;;;4.78;89.23;100241.03;125146;1102;104085;-79
2022/01/01 07:23:28;;;;;;;30.10;14.20;;;;;;;4.81;89.08;100246.41;125138;1102;103925;-79
2022/01/01 07:26:00;;;;;;;26.30;12.33;;;;;;;4.86;89.47;100243.25;125190;1102;103941;-79
2022/01/01 07:28:30;;;;;;;27.05;13.00;;;;;;;4.88;89.16;100256.34;125146;1102;103977;-79
2022/01/01 07:31:01;;;;;;;28.60;13.83;;;;;;;4.90;89.26;100264.22;125280;1102;103925;-79
2022/01/01 07:33:33;;;;;;;27.90;13.40;;;;;;;4.93;89.16;100249.67;125030;1102;104124;-79
2022/01/01 07:36:04;;;;;;;26.83;13.53;;;;;;;4.93;89.42;100254.88;125257;1101;103941;-79
2022/01/01 07:38:34;;;;;;;31.00;14.30;;;;;;;4.94;89.21;100258.36;125176;1102;104060;-79
2022/01/01 07:41:04;;;;;;;28.93;14.30;;;;;;;4.94;89.04;100259.27;125207;1102;104043;-80
2022/01/01 07:43:33;;;;;;;27.93;13.17;;;;;;;4.95;89.13;100262.75;125252;1102;104098;-79
2022/01/01 07:46:03;;;;;;;28.17;13.97;;;;;;;4.96;89.16;100254.16;125189;1102;103926;-78
2022/01/01 07:48:33;;;;;;;29.60;14.27;;;;;;;4.98;89.03;100250.80;125213;1102;103929;-79
2022/01/01 07:51:02;;;;;;;29.25;13.80;;;;;;;4.99;89.02;100257.80;125206;1102;101832;-79
2022/01/01 07:53:32;;;;;;;26.33;12.87;;;;;;;5.01;89.55;100257.89;125082;1102;104034;-79
2022/01/01 07:56:02;;;;;;;26.93;12.63;;;;;;;5.03;89.13;100262.38;125145;1102;103935;-79
2022/01/01 07:58:32;;;;;;;27.03;12.73;;;;;;;5.03;89.41;100257.17;125009;1102;103993;-79
2022/01/01 08:01:01;;;;;;;26.97;11.90;;;;;;;5.03;88.94;100257.17;125083;1102;103992;-79
2022/01/01 08:03:34;;;;;;;25.93;12.00;;;;;;;5.03;89.30;100257.17;125155;1102;104040;-78
2022/01/01 08:06:04;;;;;;;23.90;11.50;;;;;;;5.03;89.56;100256.25;125004;1102;103931;-78
2022/01/01 08:08:33;;;;;;;25.13;11.90;;;;;;;5.03;89.21;100264.97;125125;1102;104059;-79
2022/01/01 08:11:03;;;;;;;24.90;12.23;;;;;;;5.01;89.63;100263.97;125049;1102;103938;-78
2022/01/01 08:13:35;;;;;;;23.30;11.33;;;;;;;4.99;89.72;100268.20;125150;1101;104056;-79
2022/01/01 08:16:08;;;;;;;25.87;12.00;;;;;;;4.95;89.64;100265.36;125194;1102;104242;-79
2022/01/01 08:18:39;;;;;;;25.93;12.37;;;;;;;4.91;89.90;100271.19;125118;1102;104063;-78
2022/01/01 08:21:09;;;;;;;25.45;11.95;;;;;;;4.87;89.76;100272.73;125202;1102;104214;-79
2022/01/01 08:23:38;;;;;;;23.90;11.80;;;;;;;4.86;89.22;100273.53;124986;1102;104105;-79
2022/01/01 08:26:08;;;;;;;25.90;12.07;;;;;;;4.84;89.70;100283.85;125159;1102;103980;-78
2022/01/01 08:28:38;;;;;;;24.47;11.97;;;;;;;4.84;89.92;100281.25;125080;1102;103947;-78
2022/01/01 08:31:08;;;;;;;27.00;12.87;;;;;;;4.85;89.96;100280.45;125004;1103;104127;-77
2022/01/01 08:33:38;;;;;;;22.97;11.33;;;;;;;4.87;90.22;100280.53;125095;1102;104729;-77
2022/01/01 08:36:08;;;;;;;25.67;11.67;;;;;;;4.93;89.97;100283.47;125122;1102;103938;-78
2022/01/01 08:38:38;;;;;;;25.40;12.00;;;;;;;5.00;90.39;100282.09;125192;1102;103957;-79
2022/01/01 08:41:08;;;;;;;25.90;12.00;;;;;;;5.05;90.31;100283.27;125262;1102;104670;-78
2022/01/01 08:43:38;;;;;;;27.17;11.30;;;;;;;5.12;90.68;100282.77;125125;1102;103967;-78
2022/01/01 08:46:07;;;;;;;22.40;10.67;;;;;;;5.20;90.98;100290.98;124983;1103;103934;-79
2022/01/01 08:48:37;;;;;;;24.07;11.20;;;;;;;5.24;90.49;100286.86;125134;1102;104015;-78
2022/01/01 08:51:17;;;;;;;23.80;11.23;;;;;;;5.27;90.92;100282.70;125052;1102;103928;-78
2022/01/01 08:53:48;;;;;;;23.63;10.97;;;;;;;5.32;90.83;100280.34;125131;1102;103928;-78
2022/01/01 08:56:18;;;;;;;25.20;10.40;;;;;;;5.36;90.58;100280.59;125161;1102;103957;-79
2022/01/01 08:58:47;;;;;;;25.67;11.70;;;;;;;5.37;90.20;100284.96;125146;1102;103941;-78
2022/01/01 09:01:17;;;;;;;24.73;11.33;;;;;;;5.36;90.52;100285.80;125210;1101;103948;-79
2022/01/01 09:03:47;;;;;;;22.77;10.83;;;;;;;5.35;90.79;100290.91;125217;1102;103957;-80
2022/01/01 09:06:17;;;;;;;23.10;10.70;;;;;;;5.34;90.88;100286.52;125087;1102;104033;-79
2022/01/01 09:08:46;;;;;;;21.50;10.80;;;;;;;5.34;91.05;100295.20;125021;1102;104081;-79
2022/01/01 09:11:16;;;;;;;24.63;10.77;;;;;;;5.36;90.62;100284.87;125213;1102;103919;-79
2022/01/01 09:13:46;;;;;;;20.60;10.17;;;;;;;5.36;90.90;100291.00;125147;1102;104066;-79
2022/01/01 09:16:20;;;;;;;22.83;10.57;;;;;;;5.42;91.09;100287.81;125088;1102;103951;-79
2022/01/01 09:18:50;;;;;;;24.03;10.40;;;;;;;5.54;90.96;100283.25;125187;1102;103929;-79
2022/01/01 09:21:21;;;;;;;24.03;10.47;;;;;;;5.62;90.48;100282.77;125225;1102;103939;-79
2022/01/01 09:23:55;;;;;;;21.27;10.80;;;;;;;5.71;90.50;100278.04;125262;1102;103935;-79
2022/01/01 09:26:26;;;;;;;22.57;10.03;;;;;;;5.74;90.66;100281.69;124955;1102;103941;-80
2022/01/01 09:28:57;;;;;;;19.03;9.63;;;;;;;5.76;90.64;100280.08;125016;1102;104056;-79
2022/01/01 09:31:28;;;;;;;19.83;9.40;;;;;;;5.84;91.10;100276.95;124963;1102;103967;-76
2022/01/01 09:33:58;;;;;;;20.40;9.80;;;;;;;5.90;90.84;100266.84;124937;1102;104124;-78
2022/01/01 09:36:28;;;;;;;22.00;10.70;;;;;;;5.94;91.00;100274.01;125015;1102;103951;-79
2022/01/01 09:38:58;;;;;;;22.17;10.13;;;;;;;5.94;90.72;100279.22;124982;1102;103931;-79
2022/01/01 09:41:28;;;;;;;21.50;10.00;;;;;;;5.92;90.98;100283.43;125008;1102;104163;-78
2022/01/01 09:43:58;;;;;;;23.80;10.73;;;;;;;5.84;90.83;100280.44;125162;1102;103934;-78
2022/01/01 09:46:29;;;;;;;22.33;11.00;;;;;;;5.78;90.90;100280.16;125070;1102;103980;-78
2022/01/01 09:48:59;;;;;;;23.05;10.60;;;;;;;5.73;91.26;100279.92;125094;1102;103929;-78
2022/01/01 09:51:32;;;;;;;22.73;10.43;;;;;;;5.71;91.33;100273.72;125140;1102;103967;-79
2022/01/01 09:54:02;;;;;;;23.53;11.60;;;;;;;5.72;91.12;100270.30;125196;1102;103922;-78
2022/01/01 09:56:32;;;;;;;23.60;11.43;;;;;;;5.73;91.37;100279.92;125128;1102;104075;-79
2022/01/01 09:59:01;;;;;;;19.00;9.40;;;;;;;5.70;91.46;100279.76;125009;1102;103941;-79
2022/01/01 10:01:32;;;;;;;21.67;10.73;;;;;;;5.71;91.16;100281.52;125159;1102;103928;-78
2022/01/01 10:04:11;;;;;;;18.37;8.87;;;;;;;5.78;91.42;100274.03;125233;1102;103934;-79
2022/01/01 10:06:41;;;;;;;19.60;9.33;;;;;;;5.85;91.39;100274.42;125095;1102;103937;-79
2022/01/01 10:09:13;;;;;;;17.25;7.85;;;;;;;5.89;91.66;100273.77;124983;1102;103967;-78
2022/01/01 10:11:43;;;;;;;16.30;8.17;;;;;;;5.91;91.38;100271.25;125143;1102;104181;-78
2022/01/01 10:14:15;;;;;;;17.17;8.43;;;;;;;5.92;91.51;100276.53;125239;1102;104356;-79
2022/01/01 10:16:45;;;;;;;19.67;9.10;;;;;;;5.97;92.16;100276.80;125147;1102;104070;-79
2022/01/01 10:19:14;;;;;;;19.23;8.97;;;;;;;6.03;91.74;100279.72;125278;1102;103929;-79
2022/01/01 10:21:50;;;;;;;18.07;8.23;;;;;;;6.08;91.73;100274.73;125177;1102;104016;-79
2022/01/01 10:24:39;;;;;;;17.60;8.33;;;;;;;6.09;91.62;100273.90;125179;1102;104149;-80
2022/01/01 10:30:02;;;;;;;15.53;7.63;;;;;;;6.20;91.34;100282.25;125167;1102;103929;-79
2022/01/01 10:32:32;;;;;;;17.15;7.90;;;;;;;6.25;91.48;100283.40;125148;1102;103990;-80
2022/01/01 10:35:05;;;;;;;16.10;7.57;;;;;;;6.29;91.68;100283.63;125208;1102;104053;-78
2022/01/01 10:37:35;;;;;;;16.17;7.10;;;;;;;6.33;92.19;100282.05;125120;1102;104051;-78
2022/01/01 10:40:07;;;;;;;14.77;7.13;;;;;;;6.35;91.86;100269.09;125179;1102;103925;-79
2022/01/01 10:42:37;;;;;;;15.13;7.23;;;;;;;6.37;91.73;100275.27;125032;1102;103965;-79
2022/01/01 10:45:08;;;;;;;16.10;8.00;;;;;;;6.36;91.73;100279.59;125051;1102;103998;-79
2022/01/01 10:47:38;;;;;;;18.17;8.80;;;;;;;6.39;91.62;100279.75;125139;1102;103935;-81
2022/01/01 10:50:15;;;;;;;16.77;8.47;;;;;;;6.41;91.73;100278.09;125186;1102;104060;-80
2022/01/01 10:52:48;;;;;;;17.00;8.30;;;;;;;6.38;91.59;100277.95;125200;1102;104362;-81
2022/01/01 10:55:19;;;;;;;16.83;8.07;;;;;;;6.39;91.40;100278.83;125165;1102;104153;-80
2022/01/01 10:57:57;;;;;;;16.50;8.20;;;;;;;6.36;91.57;100292.62;125217;1102;104054;-80
2022/01/01 11:00:28;;;;;;;16.93;7.97;;;;;;;6.33;91.48;100282.05;125136;1102;104028;-80
2022/01/01 11:02:59;;;;;;;14.57;7.40;;;;;;;6.36;91.67;100284.81;125143;1102;103953;-79
2022/01/01 11:05:31;;;;;;;13.93;7.33;;;;;;;6.39;91.72;100278.83;125141;1102;103941;-80
2022/01/01 11:08:02;;;;;;;16.80;7.43;;;;;;;6.37;91.56;100289.19;125142;1102;103937;-79
2022/01/01 11:10:32;;;;;;;13.60;6.97;;;;;;;6.34;91.50;100281.21;125211;1102;104066;-80
2022/01/01 11:13:04;;;;;;;16.30;7.93;;;;;;;6.33;91.54;100286.34;125044;1103;103935;-80
2022/01/01 11:15:34;;;;;;;16.57;7.70;;;;;;;6.34;91.47;100282.94;125140;1102;104197;-80
2022/01/01 11:18:04;;;;;;;15.23;7.50;;;;;;;6.35;91.50;100296.05;124972;1105;105353;-78
2022/01/01 11:20:36;;;;;;;17.67;7.83;;;;;;;6.34;91.51;100294.24;125000;1105;104041;-81
2022/01/01 11:23:10;;;;;;;17.77;7.93;;;;;;;6.33;91.46;100289.88;125016;1105;103991;-80